Weather observations for the past three days for
Clarion
Imperial (Metric)
Date Time (cdt) Wind (mph) Vis. (mi.) Weather Sky Cond. Temperature (ºF) Relative Humidity Wind Chill (°F) Heat Index (°F) Pressure Precipitation (in)
Air Dwpt 6 hour altimeter (in) sea level (mb) 1 hr 3 hr 6 hr
Max. Min.
09 09:55 NW 13 10.00 Mostly Cloudy BKN085 60.8 41 48% 29.74 0.0
09 09:35 NW 18 10.00 Partly Cloudy SCT085 60.8 39.2 45% 29.76 0.0
09 09:15 NW 14 10.00 A Few Clouds FEW100 60.8 39.2 45% 29.75 0.0
09 08:55 NW 12 10.00 A Few Clouds FEW100 FEW120 57.2 35.6 44% 29.74 0.0
09 08:35 NW 14 10.00 A Few Clouds FEW120 57.2 33.8 41% 29.74 0.0
09 08:15 NW 14 10.00 A Few Clouds FEW120 57.2 32 39% 29.74 0.0
09 07:55 NW 18 0.00 Fair CLR 57.2 32 39% 29.73 0.0
09 07:35 W 13 10.00 Fair CLR 57.2 32 39% 29.73 0.0
09 07:15 NW 9 10.00 Fair CLR 51.8 32 47% 29.71 0.0
09 06:55 NW 16 G 28 10.00 Fair CLR 46.4 30.2 53% 40 29.72 0.0
09 06:35 S 6 10.00 Fair CLR 42.8 30.2 61% 40 29.66 0.0
09 06:15 S 7 10.00 Fair CLR 41 28.4 61% 37 29.66 0.0
09 05:55 S 7 10.00 Fair CLR 41 28.4 61% 37 29.65 0.0
09 05:35 S 7 10.00 Fair CLR 41 28.4 61% 37 29.65 0.0
09 05:15 S 6 10.00 Fair CLR 41 26.6 57% 38 29.66 0.0
09 04:55 SW 6 10.00 Fair CLR 41 26.6 57% 38 29.67 0.0
09 04:35 SW 5 10.00 Fair CLR 41 26.6 57% 38 29.67 0.0
09 04:15 S 8 10.00 Fair CLR 42.8 28.4 57% 39 29.66 0.0
09 03:55 S 6 10.00 Fair CLR 42.8 26.6 53% 40 29.66 0.0
09 03:35 SW 3 10.00 Fair CLR 44.6 26.6 49% 29.66 0.0
09 02:55 Calm 10.00 Fair CLR 44.6 26.6 49% 29.67 0.0
09 02:35 Calm 10.00 A Few Clouds FEW060 46.4 28.4 50% 29.67 0.0
09 02:15 Calm 10.00 Mostly Cloudy BKN060 50 28.4 43% 29.68 0.0
09 01:55 NW 5 10.00 Mostly Cloudy BKN060 BKN070 BKN095 50 28.4 43% 49 29.68 0.0
09 01:35 NW 3 10.00 Mostly Cloudy FEW055 BKN095 50 28.4 43% 29.68 0.0
09 01:15 NW 6 10.00 Partly Cloudy FEW050 SCT055 SCT100 51.8 28.4 41% 29.68 0.0
09 00:55 NW 7 10.00 A Few Clouds FEW048 FEW055 53.6 30.2 41% 29.68 0.0
09 00:35 NW 8 10.00 Fair CLR 55.4 30.2 38% 29.68 0.0
09 00:15 NW 9 10.00 Partly Cloudy FEW046 SCT100 57.2 30.2 36% 29.68 0.0
08 23:55 NW 8 10.00 Mostly Cloudy FEW047 BKN110 59 30.2 34% 29.68 0.0
08 23:35 N 7 10.00 Partly Cloudy FEW039 SCT047 59 30.2 34% 29.68 0.0
08 23:15 N 8 10.00 A Few Clouds FEW041 FEW050 FEW055 62.6 32 32% 29.67 0.0
08 22:55 N 12 10.00 Partly Cloudy FEW044 SCT110 64.4 32 30% 29.67 0.0
08 22:35 N 9 10.00 Overcast FEW075 BKN095 OVC120 64.4 32 30% 29.67 0.0
08 22:15 NW 8 10.00 Overcast FEW070 SCT075 OVC110 62.6 32 32% 29.66 0.0
08 21:55 N 7 G 13 10.00 Overcast OVC110 62.6 30.2 30% 29.65 0.0
08 21:35 NW 9 10.00 Mostly Cloudy BKN110 62.6 30.2 30% 29.64 0.0
08 21:15 NW 8 10.00 Fair CLR 62.6 28.4 27% 29.63 0.0
08 20:55 NW 9 10.00 Fair CLR 64.4 28.4 26% 29.62 0.0
08 20:35 NW 9 10.00 Fair CLR 68 28.4 23% 29.61 0.0
08 20:15 NW 9 10.00 A Few Clouds FEW110 69.8 32 25% 29.61 0.0
08 19:35 NW 5 10.00 A Few Clouds FEW110 71.6 32 23% 29.61 0.0
08 19:15 NW 8 10.00 Mostly Cloudy BKN110 73.4 32 22% 29.61 0.0
08 18:55 NW 9 10.00 Mostly Cloudy BKN110 73.4 30.2 20% 29.61 0.0
08 18:35 NW 18 10.00 Partly Cloudy SCT110 73.4 28.4 19% 29.62 0.0
08 18:15 W 14 G 21 0.00 Fair CLR 75.2 30.2 19% 76 29.62 0.0
08 17:55 W 13 G 20 10.00 A Few Clouds FEW110 73.4 28.4 19% 29.63 0.0
08 17:15 NW 15 G 24 10.00 A Few Clouds FEW110 75.2 28.4 18% 76 29.63 0.0
08 16:55 W 9 10.00 Partly Cloudy SCT110 75.2 26.6 16% 76 29.64 0.0
08 16:35 W 18 G 26 10.00 A Few Clouds FEW110 75.2 26.6 16% 76 29.65 0.0
08 16:15 W 14 G 26 10.00 Partly Cloudy SCT110 77 26.6 15% 77 29.65 0.0
08 15:55 W 17 G 25 10.00 Partly Cloudy SCT110 77 26.6 15% 77 29.66 0.0
08 15:35 W 17 G 23 10.00 A Few Clouds FEW110 75.2 26.6 16% 76 29.67 0.0
08 15:15 NW 13 G 22 10.00 Fair CLR 75.2 26.6 16% 76 29.68 0.0
08 14:55 NW 16 G 28 10.00 Fair CLR 75.2 26.6 16% 76 29.69 0.0
08 14:35 NW 14 G 20 10.00 Fair CLR 73.4 24.8 16% 29.7 0.0
08 14:15 W 9 G 21 10.00 Fair CLR 73.4 26.6 17% 29.71 0.0
08 13:55 W 13 G 20 10.00 Fair CLR 73.4 26.6 17% 29.72 0.0
08 13:35 W 14 10.00 Fair CLR 71.6 24.8 17% 29.72 0.0
08 13:15 Vrbl 5 G 17 10.00 Fair CLR 69.8 23 17% 29.73 0.0
08 12:55 W 14 10.00 A Few Clouds FEW100 71.6 24.8 17% 29.74 0.0
08 12:35 Vrbl 3 G 17 10.00 Fair CLR 69.8 23 17% 29.74 0.0
08 12:15 W 9 G 15 10.00 Fair CLR 69.8 23 17% 29.76 0.0
08 11:55 NW 12 10.00 Fair CLR 69.8 23 17% 29.76 0.0
08 11:35 W 8 G 20 10.00 Fair CLR 68 23 18% 29.77 0.0
08 11:15 NW 10 G 21 10.00 Fair CLR 68 23 18% 29.78 0.0
08 10:55 W 10 G 20 10.00 Fair CLR 68 26.6 21% 29.78 0.0
08 10:35 W 8 G 21 10.00 Fair CLR 66.2 24.8 21% 29.79 0.0
08 10:15 SW 10 10.00 Fair CLR 64.4 28.4 26% 29.8 0.0
08 09:55 SW 9 10.00 Fair CLR 62.6 30.2 30% 29.8 0.0
08 09:35 SW 10 10.00 Fair CLR 60.8 30.2 31% 29.8 0.0
08 09:15 SW 10 9.00 Fair CLR 59 28.4 31% 29.81 0.0
08 08:55 S 9 10.00 Fair CLR 57.2 26.6 31% 29.81 0.0
08 08:15 S 8 10.00 Fair CLR 51.8 26.6 38% 29.82 0.0
08 07:35 S 3 10.00 Fair CLR 48.2 26.6 43% 29.81 0.0
08 07:15 Calm 10.00 Fair CLR 44.6 26.6 49% 29.81 0.0
08 06:55 S 5 10.00 Fair CLR 42.8 26.6 53% 41 29.81 0.0
08 06:35 S 6 10.00 Fair CLR 41 24.8 53% 38 29.81 0.0
08 06:15 S 5 10.00 Fair CLR 39.2 24.8 56% 36 29.81 0.0
08 05:55 S 7 10.00 Fair CLR 37.4 24.8 60% 33 29.81 0.0
08 05:35 Calm 10.00 Fair CLR 39.2 24.8 56% 29.81 0.0
08 05:15 S 3 10.00 Fair CLR 37.4 23 56% 29.81 0.0
08 04:55 SE 3 10.00 Fair CLR 39.2 24.8 56% 29.81 0.0
08 04:35 E 3 10.00 A Few Clouds FEW055 39.2 24.8 56% 29.82 0.0
08 04:15 Calm 10.00 A Few Clouds FEW055 42.8 23 46% 29.81 0.0
08 03:55 Calm 10.00 A Few Clouds FEW050 44.6 23 43% 29.82 0.0
08 03:35 Calm 10.00 A Few Clouds FEW050 FEW060 42.8 23 46% 29.82 0.0
08 03:15 SE 5 10.00 Partly Cloudy SCT050 42.8 23 46% 41 29.82 0.0
08 02:35 E 7 10.00 Mostly Cloudy FEW046 BKN055 BKN065 46.4 23 40% 43 29.82 0.0
08 02:15 SE 9 10.00 Mostly Cloudy FEW040 SCT047 BKN055 48.2 24.8 40% 45 29.82 0.0
08 01:55 SE 9 10.00 Partly Cloudy FEW045 SCT055 SCT070 48.2 23 37% 45 29.82 0.0
08 01:35 SE 8 10.00 Mostly Cloudy FEW036 FEW042 BKN055 44.6 23 43% 41 29.83 0.0
08 01:15 E 7 10.00 Mostly Cloudy FEW034 SCT041 BKN049 46.4 23 40% 43 29.83 0.0
08 00:55 SE 10 10.00 Mostly Cloudy FEW033 SCT043 BKN050 46.4 23 40% 42 29.83 0.0
08 00:35 E 9 10.00 Partly Cloudy FEW045 SCT055 SCT070 48.2 23 37% 45 29.83 0.0
08 00:15 SE 10 10.00 Partly Cloudy FEW050 SCT065 50 23 35% 46 29.83 0.0
07 23:55 SE 9 10.00 A Few Clouds FEW049 FEW060 50 23 35% 47 29.83 0.0
07 23:35 SE 9 10.00 A Few Clouds FEW048 FEW070 50 23 35% 47 29.83 0.0
07 23:15 E 6 10.00 A Few Clouds FEW044 FEW060 48.2 23 37% 46 29.84 0.0
07 22:55 E 6 10.00 A Few Clouds FEW044 FEW055 48.2 24.8 40% 46 29.84 0.0
07 22:35 E 8 10.00 Partly Cloudy FEW044 SCT050 50 23 35% 47 29.84 0.0
07 21:55 NE 6 10.00 Mostly Cloudy FEW035 BKN041 BKN050 50 21.2 32% 48 29.84 0.0
07 21:35 N 6 10.00 Partly Cloudy FEW039 SCT046 SCT055 50 19.4 30% 48 29.83 0.0
07 21:15 N 6 10.00 A Few Clouds FEW046 51.8 19.4 28% 29.83 0.0
07 20:55 N 7 10.00 Fair CLR 55.4 21.2 26% 29.82 0.0
07 20:35 N 7 10.00 Fair CLR 59 21.2 23% 29.81 0.0
07 20:15 N 6 10.00 Fair CLR 60.8 21.2 22% 29.81 0.0
07 19:55 NW 12 10.00 Fair CLR 62.6 21.2 20% 29.8 0.0
07 19:35 NW 13 10.00 Fair CLR 62.6 21.2 20% 29.8 0.0
07 19:15 NW 10 10.00 Fair CLR 64.4 21.2 19% 29.8 0.0
07 18:55 NW 8 10.00 Fair CLR 64.4 21.2 19% 29.8 0.0
07 18:35 NW 15 10.00 Fair CLR 64.4 21.2 19% 29.8 0.0
07 18:15 NW 12 10.00 Fair CLR 64.4 21.2 19% 29.8 0.0
07 17:55 NW 15 10.00 Fair CLR 64.4 21.2 19% 29.8 0.0
07 17:35 Vrbl 6 G 14 10.00 Fair CLR 64.4 23 21% 29.8 0.0
07 17:15 NW 9 G 17 10.00 Fair CLR 64.4 21.2 19% 29.81 0.0
07 16:55 NW 13 10.00 Fair CLR 64.4 23 21% 29.81 0.0
07 16:35 NW 13 G 21 10.00 Fair CLR 66.2 21.2 18% 29.81 0.0
07 16:15 NW 10 G 18 10.00 Fair CLR 64.4 23 21% 29.81 0.0
07 15:55 W 6 G 18 10.00 Fair CLR 64.4 23 21% 29.82 0.0
07 15:35 W 13 G 20 10.00 Fair CLR 64.4 23 21% 29.82 0.0
07 15:15 SW 8 G 21 10.00 Fair CLR 62.6 23 22% 29.83 0.0
07 14:35 Vrbl 6 G 17 10.00 Fair CLR 62.6 23 22% 29.84 0.0
07 14:15 W 8 10.00 Fair CLR 62.6 24.8 24% 29.84 0.0
07 13:55 NW 13 G 20 0.00 Fair CLR 62.6 23 22% 29.84 0.0
07 13:35 Calm 10.00 Fair CLR 60.8 24.8 25% 29.84 0.0
07 13:15 N 9 G 18 10.00 Fair CLR 60.8 24.8 25% 29.85 0.0
07 12:55 N 10 10.00 Fair CLR 60.8 26.6 27% 29.85 0.0
07 12:15 NW 7 G 16 10.00 Fair CLR 59 26.6 29% 29.86 0.0
07 11:55 NE 7 G 14 10.00 Fair CLR 59 26.6 29% 29.87 0.0
07 11:35 Vrbl 7 10.00 Fair CLR 57.2 26.6 31% 29.87 0.0
07 10:55 Vrbl 3 10.00 Fair CLR 55.4 26.6 33% 29.87 0.0
07 10:35 Calm 10.00 Fair CLR 55.4 26.6 33% 29.87 0.0
07 10:15 Vrbl 5 10.00 Fair CLR 55.4 26.6 33% 29.87 0.0
07 09:55 Vrbl 7 10.00 Fair CLR 53.6 26.6 35% 29.87 0.0
07 09:35 Vrbl 5 10.00 Fair CLR 51.8 26.6 38% 29.88 0.0
07 09:15 NE 9 10.00 Fair CLR 51.8 26.6 38% 29.87 0.0
07 08:55 N 6 10.00 Fair CLR 50 24.8 37% 48 29.88 0.0
07 08:35 NW 5 G 12 10.00 Fair CLR 50 26.6 40% 49 29.88 0.0
07 08:15 NW 6 10.00 Fair CLR 48.2 26.6 43% 46 29.87 0.0
07 07:55 S 5 10.00 Fair CLR 48.2 26.6 43% 47 29.87 0.0
07 07:35 SE 5 10.00 Fair CLR 46.4 26.6 46% 45 29.87 0.0
07 07:15 SE 6 10.00 Fair CLR 44.6 26.6 49% 42 29.87 0.0
07 06:55 E 5 10.00 Mostly Cloudy BKN090 41 26.6 57% 38 29.87 0.0
07 06:35 E 5 9.00 Overcast OVC090 39.2 26.6 61% 36 29.87 0.0
07 05:55 Calm 10.00 Overcast SCT075 OVC090 41 26.6 57% 29.87 0.0
07 05:35 NE 5 10.00 Overcast OVC075 41 26.6 57% 38 29.88 0.0
07 05:15 Calm 10.00 Overcast OVC075 42.8 24.8 49% 29.88 0.0
07 04:55 S 6 10.00 Mostly Cloudy FEW055 SCT070 BKN075 42.8 24.8 49% 40 29.88 0.0
07 04:35 S 7 10.00 Overcast OVC100 42.8 24.8 49% 39 29.88 0.0
07 04:15 S 6 10.00 Overcast OVC095 42.8 23 46% 40 29.89 0.0
07 03:55 SE 8 10.00 Overcast FEW075 OVC095 42.8 23 46% 39 29.89 0.0
07 03:35 S 8 10.00 Overcast OVC090 42.8 24.8 49% 39 29.9 0.0
07 03:15 S 10 10.00 Overcast BKN080 OVC110 42.8 24.8 49% 38 29.91 0.0
07 02:55 SE 13 10.00 Overcast SCT080 BKN090 OVC110 42.8 24.8 49% 37 29.91 0.0
07 02:35 SE 14 10.00 Overcast SCT080 BKN090 OVC110 44.6 24.8 46% 39 29.92 0.0
07 02:15 SE 14 10.00 Overcast OVC095 44.6 23 43% 39 29.93 0.0
07 01:55 SE 12 10.00 Overcast OVC095 42.8 23 46% 37 29.94 0.0
07 01:35 SE 10 10.00 Overcast OVC095 44.6 23 43% 40 29.95 0.0
07 01:15 E 8 10.00 Overcast OVC090 44.6 23 43% 41 29.96 0.0
07 00:55 E 9 10.00 Overcast FEW080 OVC095 42.8 23 46% 38 29.96 0.0
07 00:35 E 10 10.00 Overcast FEW075 OVC095 44.6 23 43% 40 29.96 0.0
07 00:15 SE 9 10.00 Overcast OVC090 41 23 49% 36 29.96 0.0
06 23:35 E 9 10.00 Overcast FEW041 SCT065 OVC090 39.2 21.2 48% 34 29.97 0.0
06 23:15 E 9 10.00 Overcast FEW048 FEW070 OVC085 37.4 21.2 52% 31 29.97 0.0
06 22:55 E 6 10.00 Overcast FEW070 OVC085 39.2 21.2 48% 36 29.97 0.0
06 22:35 E 5 10.00 Overcast SCT070 OVC080 41 21.2 45% 38 29.98 0.0
06 22:15 E 3 10.00 Overcast OVC080 42.8 21.2 42% 29.98 0.0
06 21:55 E 3 10.00 Overcast FEW070 OVC080 42.8 21.2 42% 29.98 0.0
06 21:35 Calm 10.00 Overcast FEW070 OVC085 42.8 21.2 42% 29.98 0.0
06 20:55 NW 5 10.00 Fair CLR 46.4 21.2 37% 45 29.97 0.0
06 20:35 NW 7 6.00 Fair with Haze CLR 48.2 21.2 34% 46 29.97 0.0
06 20:15 NW 7 10.00 Fair CLR 50 21.2 32% 48 29.97 0.0
06 19:55 W 9 10.00 Fair CLR 51.8 21.2 30% 29.97 0.0
06 19:35 NW 14 10.00 A Few Clouds FEW075 FEW090 53.6 21.2 28% 29.97 0.0
06 19:15 NW 10 G 17 10.00 A Few Clouds FEW080 53.6 21.2 28% 29.98 0.0
06 18:55 NW 14 G 21 10.00 Partly Cloudy SCT080 53.6 21.2 28% 29.98 0.0
06 18:35 NW 17 G 24 10.00 Partly Cloudy SCT080 SCT085 53.6 21.2 28% 29.98 0.0
06 18:15 W 20 G 25 10.00 Partly Cloudy SCT080 55.4 21.2 26% 29.99 0.0
06 17:55 NW 15 G 26 10.00 A Few Clouds FEW075 53.6 21.2 28% 29.99 0.0
06 17:35 NW 21 G 28 0.00 A Few Clouds and Breezy FEW070 53.6 21.2 28% 29.99 0.0
06 17:15 NW 14 G 23 10.00 Fair CLR 51.8 21.2 30% 30 0.0
06 16:55 NW 20 G 26 10.00 Partly Cloudy SCT070 SCT080 55.4 21.2 26% 30 0.0
06 16:35 NW 20 G 29 10.00 Partly Cloudy SCT070 SCT080 53.6 21.2 28% 30 0.0
06 16:15 W 21 G 26 10.00 A Few Clouds and Breezy FEW070 53.6 23 30% 30.01 0.0
06 15:55 NW 16 G 30 10.00 A Few Clouds FEW065 53.6 21.2 28% 30.01 0.0
06 15:35 NW 20 G 29 10.00 Mostly Cloudy BKN065 51.8 23 32% 30.02 0.0
06 15:15 NW 22 G 29 10.00 Mostly Cloudy and Breezy BKN065 BKN075 53.6 23 30% 30.03 0.0
06 14:55 NW 21 G 28 10.00 Mostly Cloudy and Breezy BKN065 BKN075 51.8 23 32% 30.03 0.0
06 14:35 NW 17 G 28 10.00 Mostly Cloudy BKN065 BKN070 51.8 23 32% 30.03 0.0
06 14:15 W 21 G 29 10.00 Overcast and Breezy OVC065 50 23 35% 44 30.04 0.0
06 13:55 NW 15 G 23 10.00 Overcast BKN060 OVC070 50 23 35% 45 30.04 0.0
06 13:35 NW 18 G 26 10.00 Overcast SCT060 OVC070 50 21.2 32% 44 30.04 0.0
06 13:15 NW 20 G 25 10.00 Overcast BKN060 OVC070 48.2 21.2 34% 42 30.05 0.0
06 12:55 NW 23 G 32 10.00 Overcast and Breezy BKN060 OVC070 48.2 21.2 34% 41 30.05 0.0
06 12:35 NW 15 G 23 10.00 Overcast BKN060 OVC070 48.2 23 37% 43 30.05 0.0
06 12:15 NW 20 G 26 10.00 Overcast BKN060 OVC070 48.2 23 37% 42 30.05 0.0
06 11:55 NW 22 10.00 Overcast and Breezy SCT055 OVC070 48.2 23 37% 41 30.05 0.0
06 11:35 NW 17 G 26 10.00 Overcast BKN055 OVC065 46.4 23 40% 40 30.05 0.0
06 11:15 NW 17 G 24 10.00 Overcast BKN060 OVC070 48.2 23 37% 42 30.05 0.0
06 10:55 NW 16 G 24 10.00 Overcast BKN055 OVC070 46.4 23 40% 40 30.05 0.0
06 10:35 NW 16 10.00 Mostly Cloudy FEW049 FEW055 BKN070 46.4 24.8 43% 40 30.05 0.0
06 10:15 NW 14 10.00 Partly Cloudy SCT070 46.4 24.8 43% 41 30.05 0.0
Date Time (cdt) Wind (mph) Vis. (mi.) Weather Sky Cond. Air Dwpt Max. Min. Relative Humidity Wind Chill (°F) Heat Index (°F) altimeter (in) sea level (mb) 1 hr 3 hr 6 hr
6 hour
Temperature (ºF) Pressure Precipitation (in)